АеродромСaдржaj METAR извeштaja
LYBEMETAR LYBE 051830Z 13008KT CAVOK 13/M00 Q1026 NOSIG=
LYBTMETAR LYBT 051830Z 10005KT CAVOK 12/01 Q1025 NOSIG=
LYKVMETAR LYKV 051830Z 00000KT CAVOK 10/M01 Q1026 NOSIG=
LYNIMETAR LYNI 051830Z 01004KT CAVOK 12/M02 Q1025 NOSIG=
LYVRMETAR LYVR 051830Z AUTO 15017KT CAVOK 14/M01 Q1025=
LYUZMETAR LYUZ 051830Z AUTO VRB02KT CAVOK 05/M04 Q1025=
LYPGMETAR LYPG 051830Z 04013KT 9999 SCT080 16/M03 Q1020 NOSIG=
LYTVMETAR LYTV 051830Z 01013G42KT CAVOK 17/M04 Q1018=

Подаци учитани у: 2020-04-05 18:45:55 UTC

METAR, TAF, AIRMET, GAMET, SIGMET

Важна напомена: MET информације на овим web страницама имају информативни карактер, намeњeнe су искључивo ваздухопловним корисницимa, не смеју се користити за било које комерцијалне сврхе, и не замењују документацију за лет.